sensor_id;sensor_type;location;lat;lon;timestamp;pressure;altitude;pressure_sealevel;temperature;humidity
38225;BME280;24025;48.138;11.428;2023-04-01T00:00:11;94320.53;;;6.96;77.85
38225;BME280;24025;48.138;11.428;2023-04-01T00:02:43;94336.41;;;6.96;77.53
38225;BME280;24025;48.138;11.428;2023-04-01T00:05:15;94333.38;;;6.94;77.65
38225;BME280;24025;48.138;11.428;2023-04-01T00:07:47;94333.78;;;6.96;77.41
38225;BME280;24025;48.138;11.428;2023-04-01T00:10:19;94314.78;;;6.87;77.27
38225;BME280;24025;48.138;11.428;2023-04-01T00:12:50;94318.25;;;6.95;77.17
38225;BME280;24025;48.138;11.428;2023-04-01T00:15:22;94319.75;;;6.96;76.86
38225;BME280;24025;48.138;11.428;2023-04-01T00:17:53;94320.50;;;6.93;76.85
38225;BME280;24025;48.138;11.428;2023-04-01T00:20:25;94304.59;;;6.93;76.86
38225;BME280;24025;48.138;11.428;2023-04-01T00:22:57;94301.91;;;6.86;77.21
38225;BME280;24025;48.138;11.428;2023-04-01T00:25:28;94312.44;;;6.78;77.87
38225;BME280;24025;48.138;11.428;2023-04-01T00:28:00;94301.88;;;6.82;77.90
38225;BME280;24025;48.138;11.428;2023-04-01T00:30:33;94309.84;;;6.86;77.60
38225;BME280;24025;48.138;11.428;2023-04-01T00:33:04;94304.91;;;6.84;77.83
38225;BME280;24025;48.138;11.428;2023-04-01T00:35:36;94304.94;;;6.88;77.32
38225;BME280;24025;48.138;11.428;2023-04-01T00:38:08;94309.09;;;6.89;77.59
38225;BME280;24025;48.138;11.428;2023-04-01T00:40:42;94304.94;;;6.88;77.70
38225;BME280;24025;48.138;11.428;2023-04-01T00:43:15;94305.34;;;6.90;77.54
38225;BME280;24025;48.138;11.428;2023-04-01T00:45:49;94297.41;;;6.93;77.58
38225;BME280;24025;48.138;11.428;2023-04-01T00:48:31;94304.59;;;6.93;77.58
38225;BME280;24025;48.138;11.428;2023-04-01T00:51:06;94303.47;;;6.94;77.83
38225;BME280;24025;48.138;11.428;2023-04-01T00:53:40;94300.00;;;6.86;77.87
38225;BME280;24025;48.138;11.428;2023-04-01T00:56:13;94301.97;;;6.93;77.40
38225;BME280;24025;48.138;11.428;2023-04-01T00:58:48;94297.81;;;6.95;77.25
38225;BME280;24025;48.138;11.428;2023-04-01T01:01:21;94297.03;;;6.95;76.95
38225;BME280;24025;48.138;11.428;2023-04-01T01:03:55;94302.72;;;6.97;76.77
38225;BME280;24025;48.138;11.428;2023-04-01T01:06:38;94300.84;;;6.97;76.60
38225;BME280;24025;48.138;11.428;2023-04-01T01:09:25;94300.50;;;6.99;76.86
38225;BME280;24025;48.138;11.428;2023-04-01T01:22:22;94297.53;;;7.15;75.84
38225;BME280;24025;48.138;11.428;2023-04-01T01:27:51;94302.50;;;7.20;75.34
38225;BME280;24025;48.138;11.428;2023-04-01T01:35:56;94297.53;;;7.11;75.55
38225;BME280;24025;48.138;11.428;2023-04-01T01:38:31;94291.47;;;7.14;75.57
38225;BME280;24025;48.138;11.428;2023-04-01T01:41:04;94277.47;;;7.10;75.55
38225;BME280;24025;48.138;11.428;2023-04-01T01:43:41;94287.31;;;7.13;75.18
38225;BME280;24025;48.138;11.428;2023-04-01T01:46:14;94282.38;;;7.08;75.32
38225;BME280;24025;48.138;11.428;2023-04-01T01:48:48;94278.16;;;7.03;75.34
38225;BME280;24025;48.138;11.428;2023-04-01T01:51:21;94278.91;;;7.00;75.60
38225;BME280;24025;48.138;11.428;2023-04-01T01:53:54;94282.72;;;7.06;74.76
38225;BME280;24025;48.138;11.428;2023-04-01T01:56:25;94288.06;;;7.10;75.22
38225;BME280;24025;48.138;11.428;2023-04-01T01:59:00;94276.66;;;7.06;74.80
38225;BME280;24025;48.138;11.428;2023-04-01T02:01:35;94285.03;;;7.08;74.45
38225;BME280;24025;48.138;11.428;2023-04-01T02:04:09;94300.13;;;7.04;74.80
38225;BME280;24025;48.138;11.428;2023-04-01T02:06:43;94299.78;;;7.09;74.54
38225;BME280;24025;48.138;11.428;2023-04-01T02:09:17;94302.03;;;7.03;74.67
38225;BME280;24025;48.138;11.428;2023-04-01T02:11:51;94303.16;;;7.06;74.34
38225;BME280;24025;48.138;11.428;2023-04-01T02:14:24;94295.22;;;7.06;74.64
38225;BME280;24025;48.138;11.428;2023-04-01T02:17:16;94292.97;;;7.08;74.20
38225;BME280;24025;48.138;11.428;2023-04-01T02:19:57;94295.53;;;6.97;74.66
38225;BME280;24025;48.138;11.428;2023-04-01T02:22:34;94301.25;;;7.03;74.21
38225;BME280;24025;48.138;11.428;2023-04-01T02:25:08;94297.88;;;7.06;74.20
38225;BME280;24025;48.138;11.428;2023-04-01T02:27:40;94294.44;;;7.02;74.08
38225;BME280;24025;48.138;11.428;2023-04-01T02:30:14;94301.28;;;7.06;74.36
38225;BME280;24025;48.138;11.428;2023-04-01T02:32:46;94299.75;;;7.05;74.34
38225;BME280;24025;48.138;11.428;2023-04-01T02:35:18;94304.66;;;7.03;74.23
38225;BME280;24025;48.138;11.428;2023-04-01T02:37:50;94310.34;;;6.98;74.40
38225;BME280;24025;48.138;11.428;2023-04-01T02:40:23;94308.06;;;7.00;74.43
38225;BME280;24025;48.138;11.428;2023-04-01T02:42:54;94306.91;;;6.98;74.32
38225;BME280;24025;48.138;11.428;2023-04-01T02:45:25;94309.97;;;7.00;74.46
38225;BME280;24025;48.138;11.428;2023-04-01T02:47:57;94314.09;;;6.97;74.21
38225;BME280;24025;48.138;11.428;2023-04-01T02:50:28;94311.09;;;6.99;74.03
38225;BME280;24025;48.138;11.428;2023-04-01T02:53:00;94322.06;;;7.01;74.29
38225;BME280;24025;48.138;11.428;2023-04-01T02:55:32;94312.63;;;7.03;74.08
38225;BME280;24025;48.138;11.428;2023-04-01T02:58:04;94322.06;;;7.01;74.09
38225;BME280;24025;48.138;11.428;2023-04-01T03:00:35;94320.13;;;6.91;74.05
38225;BME280;24025;48.138;11.428;2023-04-01T03:03:07;94312.84;;;6.80;74.92
38225;BME280;24025;48.138;11.428;2023-04-01T03:05:39;94315.53;;;6.84;74.69
38225;BME280;24025;48.138;11.428;2023-04-01T03:08:10;94321.59;;;6.88;74.52
38225;BME280;24025;48.138;11.428;2023-04-01T03:10:43;94322.78;;;6.91;74.56
38225;BME280;24025;48.138;11.428;2023-04-01T03:13:14;94318.94;;;6.88;74.42
38225;BME280;24025;48.138;11.428;2023-04-01T03:15:45;94314.03;;;6.87;74.31
38225;BME280;24025;48.138;11.428;2023-04-01T03:18:17;94318.56;;;6.86;74.41
38225;BME280;24025;48.138;11.428;2023-04-01T03:20:48;94324.22;;;6.85;74.51
38225;BME280;24025;48.138;11.428;2023-04-01T03:23:20;94324.94;;;6.78;74.48
38225;BME280;24025;48.138;11.428;2023-04-01T03:25:52;94331.34;;;6.73;74.74
38225;BME280;24025;48.138;11.428;2023-04-01T03:28:23;94319.53;;;6.64;74.74
38225;BME280;24025;48.138;11.428;2023-04-01T03:30:55;94322.56;;;6.66;74.89
38225;BME280;24025;48.138;11.428;2023-04-01T03:33:26;94322.19;;;6.64;75.00
38225;BME280;24025;48.138;11.428;2023-04-01T03:35:58;94322.84;;;6.53;75.52
38225;BME280;24025;48.138;11.428;2023-04-01T03:38:29;94330.06;;;6.57;75.11
38225;BME280;24025;48.138;11.428;2023-04-01T03:41:01;94339.53;;;6.61;75.00
38225;BME280;24025;48.138;11.428;2023-04-01T03:43:33;94337.72;;;6.65;75.00
38225;BME280;24025;48.138;11.428;2023-04-01T03:46:04;94330.88;;;6.64;75.18
38225;BME280;24025;48.138;11.428;2023-04-01T03:48:36;94322.13;;;6.60;75.61
38225;BME280;24025;48.138;11.428;2023-04-01T03:51:08;94331.97;;;6.60;75.64
38225;BME280;24025;48.138;11.428;2023-04-01T03:53:39;94341.78;;;6.56;75.95
38225;BME280;24025;48.138;11.428;2023-04-01T03:56:11;94325.47;;;6.50;76.38
38225;BME280;24025;48.138;11.428;2023-04-01T03:58:42;94334.84;;;6.44;76.62
38225;BME280;24025;48.138;11.428;2023-04-01T04:01:21;94336.75;;;6.43;76.79
38225;BME280;24025;48.138;11.428;2023-04-01T04:03:53;94335.63;;;6.44;76.64
38225;BME280;24025;48.138;11.428;2023-04-01T04:06:24;94341.66;;;6.41;77.01
38225;BME280;24025;48.138;11.428;2023-04-01T04:08:56;94340.44;;;6.35;77.37
38225;BME280;24025;48.138;11.428;2023-04-01T04:11:28;94344.69;;;6.43;77.48
38225;BME280;24025;48.138;11.428;2023-04-01T04:14:01;94351.56;;;6.48;77.41
38225;BME280;24025;48.138;11.428;2023-04-01T04:16:34;94345.88;;;6.49;77.29
38225;BME280;24025;48.138;11.428;2023-04-01T04:19:07;94342.53;;;6.56;77.71
38225;BME280;24025;48.138;11.428;2023-04-01T04:21:39;94335.75;;;6.59;77.63
38225;BME280;24025;48.138;11.428;2023-04-01T04:24:11;94338.06;;;6.64;77.53
38225;BME280;24025;48.138;11.428;2023-04-01T04:26:42;94338.47;;;6.66;77.39
38225;BME280;24025;48.138;11.428;2023-04-01T04:29:13;94337.31;;;6.63;77.03
38225;BME280;24025;48.138;11.428;2023-04-01T04:31:45;94343.03;;;6.69;77.14
38225;BME280;24025;48.138;11.428;2023-04-01T04:34:16;94342.25;;;6.68;76.83
38225;BME280;24025;48.138;11.428;2023-04-01T04:36:49;94344.91;;;6.65;76.84
38225;BME280;24025;48.138;11.428;2023-04-01T04:39:21;94352.91;;;6.72;76.34
38225;BME280;24025;48.138;11.428;2023-04-01T04:41:52;94362.31;;;6.66;76.72
38225;BME280;24025;48.138;11.428;2023-04-01T04:44:23;94347.94;;;6.70;76.15
38225;BME280;24025;48.138;11.428;2023-04-01T04:46:55;94354.81;;;6.75;76.13
38225;BME280;24025;48.138;11.428;2023-04-01T04:49:28;94352.16;;;6.75;76.07
38225;BME280;24025;48.138;11.428;2023-04-01T04:52:00;94352.63;;;6.88;75.60
38225;BME280;24025;48.138;11.428;2023-04-01T04:54:31;94362.47;;;6.87;75.55
38225;BME280;24025;48.138;11.428;2023-04-01T04:57:02;94361.00;;;6.90;75.39
38225;BME280;24025;48.138;11.428;2023-04-01T04:59:34;94362.91;;;6.93;75.08
38225;BME280;24025;48.138;11.428;2023-04-01T05:02:06;94366.69;;;6.92;75.06
38225;BME280;24025;48.138;11.428;2023-04-01T05:04:37;94358.41;;;7.00;74.26
38225;BME280;24025;48.138;11.428;2023-04-01T05:07:09;94364.84;;;6.99;74.56
38225;BME280;24025;48.138;11.428;2023-04-01T05:09:40;94371.66;;;7.00;73.67
38225;BME280;24025;48.138;11.428;2023-04-01T05:12:12;94361.06;;;7.00;73.42
38225;BME280;24025;48.138;11.428;2023-04-01T05:14:44;94367.16;;;7.04;73.54
38225;BME280;24025;48.138;11.428;2023-04-01T05:17:15;94367.94;;;7.08;72.71
38225;BME280;24025;48.138;11.428;2023-04-01T05:19:47;94355.78;;;7.04;72.67
38225;BME280;24025;48.138;11.428;2023-04-01T05:22:18;94372.13;;;7.09;72.18
38225;BME280;24025;48.138;11.428;2023-04-01T05:24:49;94358.09;;;7.09;72.07
38225;BME280;24025;48.138;11.428;2023-04-01T05:27:21;94364.16;;;7.09;72.09
38225;BME280;24025;48.138;11.428;2023-04-01T05:29:52;94363.41;;;7.13;72.20
38225;BME280;24025;48.138;11.428;2023-04-01T05:32:24;94357.75;;;7.14;71.70
38225;BME280;24025;48.138;11.428;2023-04-01T05:34:55;94363.03;;;7.07;72.10
38225;BME280;24025;48.138;11.428;2023-04-01T05:37:27;94352.06;;;7.12;71.87
38225;BME280;24025;48.138;11.428;2023-04-01T05:39:58;94360.41;;;7.14;71.36
38225;BME280;24025;48.138;11.428;2023-04-01T05:42:30;94360.06;;;7.16;71.38
38225;BME280;24025;48.138;11.428;2023-04-01T05:45:01;94368.78;;;7.20;71.02
38225;BME280;24025;48.138;11.428;2023-04-01T05:47:32;94358.94;;;7.24;70.76
38225;BME280;24025;48.138;11.428;2023-04-01T05:50:04;94368.78;;;7.23;70.98
38225;BME280;24025;48.138;11.428;2023-04-01T05:52:36;94361.25;;;7.25;70.69
38225;BME280;24025;48.138;11.428;2023-04-01T05:55:07;94361.63;;;7.27;70.49
38225;BME280;24025;48.138;11.428;2023-04-01T05:57:39;94370.69;;;7.23;70.22
38225;BME280;24025;48.138;11.428;2023-04-01T06:00:11;94366.94;;;7.27;70.14
38225;BME280;24025;48.138;11.428;2023-04-01T06:02:42;94360.94;;;7.34;70.74
38225;BME280;24025;48.138;11.428;2023-04-01T06:05:16;94368.88;;;7.34;70.45
38225;BME280;24025;48.138;11.428;2023-04-01T06:07:50;94356.38;;;7.38;70.26
38225;BME280;24025;48.138;11.428;2023-04-01T06:10:22;94364.72;;;7.40;69.29
38225;BME280;24025;48.138;11.428;2023-04-01T06:13:18;94377.28;;;7.43;68.85
38225;BME280;24025;48.138;11.428;2023-04-01T06:15:53;94359.84;;;7.42;68.49
38225;BME280;24025;48.138;11.428;2023-04-01T06:21:23;94363.69;;;7.52;68.04
38225;BME280;24025;48.138;11.428;2023-04-01T06:40:02;94356.59;;;7.74;67.06
38225;BME280;24025;48.138;11.428;2023-04-01T06:55:46;94363.91;;;8.05;65.15
38225;BME280;24025;48.138;11.428;2023-04-01T06:58:26;94363.16;;;8.12;64.92
38225;BME280;24025;48.138;11.428;2023-04-01T07:01:07;94362.06;;;8.16;63.87
38225;BME280;24025;48.138;11.428;2023-04-01T07:06:35;94369.66;;;8.29;63.63
38225;BME280;24025;48.138;11.428;2023-04-01T07:09:12;94376.16;;;8.38;63.90
38225;BME280;24025;48.138;11.428;2023-04-01T07:11:45;94373.50;;;8.38;63.62
38225;BME280;24025;48.138;11.428;2023-04-01T07:17:05;94374.72;;;8.66;63.97
38225;BME280;24025;48.138;11.428;2023-04-01T07:24:48;94380.06;;;8.76;61.98
38225;BME280;24025;48.138;11.428;2023-04-01T07:27:20;94362.19;;;8.80;61.93
38225;BME280;24025;48.138;11.428;2023-04-01T07:29:55;94372.06;;;8.91;62.35
38225;BME280;24025;48.138;11.428;2023-04-01T07:32:30;94367.16;;;8.96;61.61
38225;BME280;24025;48.138;11.428;2023-04-01T07:40:32;94383.88;;;8.93;61.03
38225;BME280;24025;48.138;11.428;2023-04-01T07:43:13;94374.75;;;9.05;60.70
38225;BME280;24025;48.138;11.428;2023-04-01T07:48:43;94382.34;;;9.24;60.11
38225;BME280;24025;48.138;11.428;2023-04-01T07:54:13;94394.50;;;9.25;60.37
38225;BME280;24025;48.138;11.428;2023-04-01T07:56:58;94382.34;;;9.10;60.32
38225;BME280;24025;48.138;11.428;2023-04-01T08:05:09;94382.34;;;9.24;59.51
38225;BME280;24025;48.138;11.428;2023-04-01T08:07:49;94373.97;;;9.40;59.65
38225;BME280;24025;48.138;11.428;2023-04-01T08:10:32;94381.16;;;9.43;59.30
38225;BME280;24025;48.138;11.428;2023-04-01T08:21:03;94378.47;;;9.61;58.08
38225;BME280;24025;48.138;11.428;2023-04-01T08:23:37;94376.22;;;9.63;58.41
38225;BME280;24025;48.138;11.428;2023-04-01T08:26:14;94367.09;;;9.53;57.93
38225;BME280;24025;48.138;11.428;2023-04-01T08:28:54;94363.25;;;9.61;58.42
38225;BME280;24025;48.138;11.428;2023-04-01T08:34:08;94358.97;;;9.96;56.89
38225;BME280;24025;48.138;11.428;2023-04-01T08:36:43;94381.81;;;10.01;56.64
38225;BME280;24025;48.138;11.428;2023-04-01T08:39:16;94368.88;;;9.99;56.92
38225;BME280;24025;48.138;11.428;2023-04-01T08:47:14;94356.66;;;10.09;55.83
38225;BME280;24025;48.138;11.428;2023-04-01T08:52:43;94354.75;;;10.06;55.68
38225;BME280;24025;48.138;11.428;2023-04-01T08:58:31;94377.94;;;10.12;55.69
38225;BME280;24025;48.138;11.428;2023-04-01T09:00:57;94369.97;;;10.16;55.89
38225;BME280;24025;48.138;11.428;2023-04-01T09:03:37;94374.88;;;10.28;55.44
38225;BME280;24025;48.138;11.428;2023-04-01T09:32:46;94355.41;;;10.94;53.37
38225;BME280;24025;48.138;11.428;2023-04-01T09:35:23;94336.59;;;11.15;52.95
38225;BME280;24025;48.138;11.428;2023-04-01T09:46:22;94329.97;;;11.64;51.24
38225;BME280;24025;48.138;11.428;2023-04-01T10:10:47;94316.88;;;11.77;50.96
38225;BME280;24025;48.138;11.428;2023-04-01T10:27:06;94325.16;;;11.52;50.96
38225;BME280;24025;48.138;11.428;2023-04-01T10:32:25;94320.00;;;11.72;51.52
38225;BME280;24025;48.138;11.428;2023-04-01T10:52:07;94349.97;;;10.56;56.70
38225;BME280;24025;48.138;11.428;2023-04-01T10:57:14;94353.16;;;10.30;60.13
38225;BME280;24025;48.138;11.428;2023-04-01T11:18:54;94366.84;;;10.35;61.95
38225;BME280;24025;48.138;11.428;2023-04-01T11:24:38;94366.44;;;10.37;62.25
38225;BME280;24025;48.138;11.428;2023-04-01T11:27:19;94371.84;;;10.15;63.59
38225;BME280;24025;48.138;11.428;2023-04-01T11:40:37;94393.25;;;9.83;67.05
38225;BME280;24025;48.138;11.428;2023-04-01T11:51:29;94375.13;;;9.21;71.89
38225;BME280;24025;48.138;11.428;2023-04-01T11:54:12;94384.22;;;8.81;71.59
38225;BME280;24025;48.138;11.428;2023-04-01T12:12:37;94381.53;;;8.56;76.90
38225;BME280;24025;48.138;11.428;2023-04-01T12:18:47;94377.34;;;8.41;78.22
38225;BME280;24025;48.138;11.428;2023-04-01T12:26:43;94387.59;;;8.49;75.01
38225;BME280;24025;48.138;11.428;2023-04-01T12:51:20;94386.41;;;8.36;74.25
38225;BME280;24025;48.138;11.428;2023-04-01T12:56:59;94394.75;;;8.31;74.71
38225;BME280;24025;48.138;11.428;2023-04-01T13:07:33;94401.59;;;8.36;73.87
38225;BME280;24025;48.138;11.428;2023-04-01T13:18:11;94409.06;;;8.12;77.77
38225;BME280;24025;48.138;11.428;2023-04-01T13:29:11;94410.34;;;8.43;78.19
38225;BME280;24025;48.138;11.428;2023-04-01T13:39:39;94418.66;;;8.35;78.43
38225;BME280;24025;48.138;11.428;2023-04-01T13:58:43;94407.00;;;8.89;76.43
38225;BME280;24025;48.138;11.428;2023-04-01T14:04:09;94405.88;;;9.19;74.58
38225;BME280;24025;48.138;11.428;2023-04-01T14:12:06;94406.28;;;9.14;72.60
38225;BME280;24025;48.138;11.428;2023-04-01T14:15:25;94411.97;;;9.12;72.37
38225;BME280;24025;48.138;11.428;2023-04-01T14:42:18;94417.66;;;9.00;75.45
38225;BME280;24025;48.138;11.428;2023-04-01T14:45:02;94407.38;;;8.80;76.54
38225;BME280;24025;48.138;11.428;2023-04-01T14:47:54;94414.25;;;8.92;77.45
38225;BME280;24025;48.138;11.428;2023-04-01T14:50:28;94419.94;;;8.98;77.92
38225;BME280;24025;48.138;11.428;2023-04-01T14:53:16;94437.78;;;8.76;76.90
38225;BME280;24025;48.138;11.428;2023-04-01T14:55:56;94412.69;;;8.73;78.90
38225;BME280;24025;48.138;11.428;2023-04-01T14:58:42;94405.84;;;8.69;79.15
38225;BME280;24025;48.138;11.428;2023-04-01T15:01:35;94417.19;;;8.48;78.94
38225;BME280;24025;48.138;11.428;2023-04-01T15:06:56;94414.16;;;8.53;77.67
38225;BME280;24025;48.138;11.428;2023-04-01T15:09:36;94408.84;;;8.57;78.20
38225;BME280;24025;48.138;11.428;2023-04-01T15:20:16;94426.03;;;8.95;73.89
38225;BME280;24025;48.138;11.428;2023-04-01T15:23:13;94436.63;;;8.91;72.13
38225;BME280;24025;48.138;11.428;2023-04-01T15:32:03;94421.44;;;9.45;70.97
38225;BME280;24025;48.138;11.428;2023-04-01T15:34:36;94438.19;;;9.31;71.36
38225;BME280;24025;48.138;11.428;2023-04-01T15:37:19;94438.97;;;9.28;71.20
38225;BME280;24025;48.138;11.428;2023-04-01T15:39:57;94434.38;;;9.50;70.55
38225;BME280;24025;48.138;11.428;2023-04-01T15:48:01;94452.88;;;10.29;66.83
38225;BME280;24025;48.138;11.428;2023-04-01T15:50:51;94447.50;;;10.39;64.14
38225;BME280;24025;48.138;11.428;2023-04-01T16:01:46;94438.38;;;10.44;60.43
38225;BME280;24025;48.138;11.428;2023-04-01T16:17:39;94443.09;;;9.90;61.22
38225;BME280;24025;48.138;11.428;2023-04-01T16:20:25;94440.81;;;9.85;61.37
38225;BME280;24025;48.138;11.428;2023-04-01T16:26:13;94444.25;;;9.35;62.55
38225;BME280;24025;48.138;11.428;2023-04-01T16:28:54;94448.06;;;9.42;62.74
38225;BME280;24025;48.138;11.428;2023-04-01T16:34:18;94456.06;;;9.24;64.07
38225;BME280;24025;48.138;11.428;2023-04-01T16:36:52;94451.50;;;9.24;64.37
38225;BME280;24025;48.138;11.428;2023-04-01T16:44:47;94436.31;;;9.11;63.90
38225;BME280;24025;48.138;11.428;2023-04-01T16:47:22;94438.56;;;8.98;63.80
38225;BME280;24025;48.138;11.428;2023-04-01T16:55:20;94457.94;;;8.95;63.22
38225;BME280;24025;48.138;11.428;2023-04-01T16:57:58;94482.22;;;8.93;62.72
38225;BME280;24025;48.138;11.428;2023-04-01T17:00:48;94463.25;;;8.95;63.33
38225;BME280;24025;48.138;11.428;2023-04-01T17:03:27;94460.97;;;8.93;62.84
38225;BME280;24025;48.138;11.428;2023-04-01T17:06:07;94475.75;;;8.91;62.72
38225;BME280;24025;48.138;11.428;2023-04-01T17:21:56;94476.88;;;8.79;63.54
38225;BME280;24025;48.138;11.428;2023-04-01T17:43:03;94487.84;;;8.70;63.06
38225;BME280;24025;48.138;11.428;2023-04-01T18:07:05;94502.22;;;8.51;63.63
38225;BME280;24025;48.138;11.428;2023-04-01T18:30:37;94537.44;;;8.38;68.08
38225;BME280;24025;48.138;11.428;2023-04-01T18:33:18;94546.16;;;8.38;68.13
38225;BME280;24025;48.138;11.428;2023-04-01T18:36:35;94540.06;;;8.34;68.99
38225;BME280;24025;48.138;11.428;2023-04-01T18:38:48;94539.22;;;8.19;69.25
38225;BME280;24025;48.138;11.428;2023-04-01T18:41:24;94539.59;;;8.21;68.52
38225;BME280;24025;48.138;11.428;2023-04-01T18:44:03;94549.50;;;8.24;69.30
38225;BME280;24025;48.138;11.428;2023-04-01T18:46:50;94540.00;;;8.23;67.56
38225;BME280;24025;48.138;11.428;2023-04-01T18:52:15;94546.81;;;8.21;68.81
38225;BME280;24025;48.138;11.428;2023-04-01T19:05:35;94567.22;;;8.10;69.90
38225;BME280;24025;48.138;11.428;2023-04-01T19:08:14;94573.66;;;8.09;70.31
38225;BME280;24025;48.138;11.428;2023-04-01T19:10:53;94560.00;;;8.07;70.65
38225;BME280;24025;48.138;11.428;2023-04-01T19:18:46;94568.66;;;7.97;71.18
38225;BME280;24025;48.138;11.428;2023-04-01T19:29:18;94592.09;;;7.87;71.99
38225;BME280;24025;48.138;11.428;2023-04-01T19:50:31;94599.75;;;7.52;72.83
38225;BME280;24025;48.138;11.428;2023-04-01T19:58:57;94605.22;;;7.32;73.57
38225;BME280;24025;48.138;11.428;2023-04-01T20:01:41;94604.47;;;7.32;73.46
38225;BME280;24025;48.138;11.428;2023-04-01T20:04:22;94606.34;;;7.31;73.58
38225;BME280;24025;48.138;11.428;2023-04-01T20:07:00;94617.66;;;7.25;73.85
38225;BME280;24025;48.138;11.428;2023-04-01T20:09:41;94619.50;;;7.21;74.16
38225;BME280;24025;48.138;11.428;2023-04-01T20:15:27;94620.94;;;7.15;74.61
38225;BME280;24025;48.138;11.428;2023-04-01T20:18:08;94623.56;;;7.11;74.30
38225;BME280;24025;48.138;11.428;2023-04-01T20:26:20;94630.03;;;7.14;74.30
38225;BME280;24025;48.138;11.428;2023-04-01T20:29:04;94628.41;;;7.05;74.56
38225;BME280;24025;48.138;11.428;2023-04-01T20:31:42;94623.88;;;7.06;74.62
38225;BME280;24025;48.138;11.428;2023-04-01T20:37:14;94628.41;;;7.05;74.66
38225;BME280;24025;48.138;11.428;2023-04-01T20:56:02;94634.81;;;7.01;74.74
38225;BME280;24025;48.138;11.428;2023-04-01T21:06:55;94645.06;;;7.06;74.50
38225;BME280;24025;48.138;11.428;2023-04-01T21:09:39;94646.25;;;7.08;74.73
38225;BME280;24025;48.138;11.428;2023-04-01T21:12:24;94648.53;;;7.10;74.29
38225;BME280;24025;48.138;11.428;2023-04-01T21:23:33;94654.34;;;7.19;74.33
38225;BME280;24025;48.138;11.428;2023-04-01T21:28:51;94670.28;;;7.23;73.87
38225;BME280;24025;48.138;11.428;2023-04-01T21:31:37;94666.09;;;7.22;74.17
38225;BME280;24025;48.138;11.428;2023-04-01T22:11:54;94685.41;;;7.22;73.97
38225;BME280;24025;48.138;11.428;2023-04-01T22:14:37;94694.50;;;7.21;73.98
38225;BME280;24025;48.138;11.428;2023-04-01T22:25:51;94700.66;;;7.29;73.59
38225;BME280;24025;48.138;11.428;2023-04-01T22:28:32;94695.81;;;7.34;73.26
38225;BME280;24025;48.138;11.428;2023-04-01T22:31:07;94699.97;;;7.35;73.07
38225;BME280;24025;48.138;11.428;2023-04-01T22:36:48;94707.22;;;7.38;72.76
38225;BME280;24025;48.138;11.428;2023-04-01T22:39:27;94705.31;;;7.39;73.11
38225;BME280;24025;48.138;11.428;2023-04-01T22:42:01;94711.38;;;7.39;72.70
38225;BME280;24025;48.138;11.428;2023-04-01T22:47:16;94707.94;;;7.35;72.96
38225;BME280;24025;48.138;11.428;2023-04-01T22:49:57;94701.13;;;7.38;72.87
38225;BME280;24025;48.138;11.428;2023-04-01T22:52:35;94698.88;;;7.40;72.44
38225;BME280;24025;48.138;11.428;2023-04-01T22:55:13;94705.31;;;7.39;72.20
38225;BME280;24025;48.138;11.428;2023-04-01T23:00:41;94704.56;;;7.38;72.43
38225;BME280;24025;48.138;11.428;2023-04-01T23:05:49;94714.75;;;7.36;72.32
38225;BME280;24025;48.138;11.428;2023-04-01T23:10:57;94709.47;;;7.36;72.26
38225;BME280;24025;48.138;11.428;2023-04-01T23:13:31;94720.47;;;7.38;72.29
38225;BME280;24025;48.138;11.428;2023-04-01T23:16:05;94722.00;;;7.39;72.51
38225;BME280;24025;48.138;11.428;2023-04-01T23:18:46;94718.22;;;7.41;72.07
38225;BME280;24025;48.138;11.428;2023-04-01T23:29:22;94729.56;;;7.37;72.33
38225;BME280;24025;48.138;11.428;2023-04-01T23:34:32;94740.88;;;7.34;72.63
38225;BME280;24025;48.138;11.428;2023-04-01T23:37:08;94742.72;;;7.30;72.31
38225;BME280;24025;48.138;11.428;2023-04-01T23:39:43;94742.41;;;7.35;72.46
38225;BME280;24025;48.138;11.428;2023-04-01T23:42:50;94740.81;;;7.31;72.31
38225;BME280;24025;48.138;11.428;2023-04-01T23:45:15;94740.81;;;7.31;72.51
38225;BME280;24025;48.138;11.428;2023-04-01T23:47:48;94737.78;;;7.29;72.51
38225;BME280;24025;48.138;11.428;2023-04-01T23:50:24;94744.25;;;7.31;72.51
38225;BME280;24025;48.138;11.428;2023-04-01T23:53:04;94746.47;;;7.26;72.44
38225;BME280;24025;48.138;11.428;2023-04-01T23:55:42;94739.38;;;7.33;72.91
